Time;durP1;ratioP1;P1;durP2;ratioP2;P2;SDS_P1;SDS_P2;PMS_P1;PMS_P2;Temp;Humidity;BMP_temperature;BMP_pressure;BME280_temperature;BME280_humidity;BME280_pressure;Samples;Min_cycle;Max_cycle;Signal;HPM_P1;HPM_P2
2021/06/13 00:01:21;;;;;;;5.50;5.00;;;17.90;99.90;;;;;;5054899;28;20940;-80
2021/06/13 00:03:48;;;;;;;6.10;5.10;;;18.00;99.90;;;;;;5054674;28;21015;-80
2021/06/13 00:06:14;;;;;;;6.70;5.40;;;18.00;99.90;;;;;;5054727;28;20434;-80
2021/06/13 00:08:40;;;;;;;5.50;5.00;;;18.00;99.90;;;;;;5054851;28;20445;-80
2021/06/13 00:11:07;;;;;;;6.70;5.87;;;18.00;99.90;;;;;;5054648;28;20449;-80
2021/06/13 00:13:33;;;;;;;5.67;5.10;;;18.00;99.90;;;;;;5054803;28;20454;-80
2021/06/13 00:16:00;;;;;;;6.13;5.17;;;18.00;99.90;;;;;;5054732;28;20457;-80
2021/06/13 00:18:27;;;;;;;6.43;5.83;;;18.00;99.90;;;;;;5054320;28;20484;-80
2021/06/13 00:20:54;;;;;;;7.83;5.70;;;17.90;99.90;;;;;;5054408;28;20950;-79
2021/06/13 00:23:20;;;;;;;6.80;4.63;;;18.00;99.90;;;;;;5054247;28;20458;-80
2021/06/13 00:25:47;;;;;;;6.63;5.50;;;18.00;99.90;;;;;;5054522;28;20454;-80
2021/06/13 00:28:13;;;;;;;6.17;5.10;;;18.00;99.90;;;;;;5054748;28;20449;-79
2021/06/13 00:30:39;;;;;;;6.40;5.47;;;17.90;99.90;;;;;;5053628;28;20458;-80
2021/06/13 00:33:07;;;;;;;5.30;4.80;;;17.90;99.90;;;;;;5054337;28;20465;-79
2021/06/13 00:35:35;;;;;;;7.20;5.07;;;17.90;99.90;;;;;;5054323;28;20452;-81
2021/06/13 00:38:02;;;;;;;6.03;4.93;;;17.90;99.90;;;;;;5054255;28;20481;-82
2021/06/13 00:40:29;;;;;;;5.33;4.83;;;17.90;99.90;;;;;;5054201;28;20438;-82
2021/06/13 00:42:55;;;;;;;5.30;4.80;;;17.90;99.90;;;;;;5054126;28;20469;-82
2021/06/13 00:45:22;;;;;;;5.93;5.03;;;17.80;99.90;;;;;;5053746;28;20465;-82
2021/06/13 00:47:49;;;;;;;6.20;5.50;;;17.70;99.90;;;;;;5053896;28;20912;-82
2021/06/13 00:50:22;;;;;;;6.77;6.00;;;17.70;99.90;;;;;;5054065;28;20511;-80
2021/06/13 00:52:49;;;;;;;7.60;5.90;;;17.60;99.90;;;;;;5054038;28;20485;-80
2021/06/13 00:55:16;;;;;;;6.07;5.00;;;17.60;99.90;;;;;;5053725;28;20442;-80
2021/06/13 00:57:42;;;;;;;5.47;4.97;;;17.60;99.90;;;;;;5053958;28;20489;-86
2021/06/13 01:00:10;;;;;;;5.30;4.87;;;17.60;99.90;;;;;;5053967;28;20449;-80
2021/06/13 01:02:36;;;;;;;5.67;5.13;;;17.50;99.90;;;;;;5053562;28;20528;-80
2021/06/13 01:05:03;;;;;;;5.73;4.90;;;17.50;99.90;;;;;;5053696;28;20461;-80
2021/06/13 01:07:37;;;;;;;7.40;5.30;;;17.40;99.90;;;;;;5053513;28;20945;-79
2021/06/13 01:10:11;;;;;;;5.80;5.20;;;17.40;99.90;;;;;;5054052;28;20410;-79
2021/06/13 01:12:43;;;;;;;7.30;6.20;;;17.30;99.90;;;;;;5053654;28;20469;-80
2021/06/13 01:15:13;;;;;;;6.37;5.73;;;17.30;99.90;;;;;;5054387;28;20519;-80
2021/06/13 01:17:44;;;;;;;6.10;5.50;;;17.20;99.90;;;;;;5053560;28;20492;-80
2021/06/13 01:20:19;;;;;;;6.43;5.83;;;17.20;99.90;;;;;;5053420;28;20430;-86
2021/06/13 01:23:07;;;;;;;7.00;5.20;;;17.20;99.90;;;;;;5053337;28;20450;-86
2021/06/13 01:25:49;;;;;;;7.53;5.70;;;17.20;99.90;;;;;;5053281;28;20426;-85
2021/06/13 01:28:50;;;;;;;5.93;5.33;;;17.10;99.90;;;;;;5053296;28;20913;-85
2021/06/13 01:31:18;;;;;;;7.27;6.10;;;17.10;99.90;;;;;;5053472;28;20407;-85
2021/06/13 01:33:47;;;;;;;7.03;5.97;;;17.10;99.90;;;;;;5053486;28;20496;-80
2021/06/13 01:36:15;;;;;;;8.73;5.40;;;17.10;99.90;;;;;;5053423;28;20441;-80
2021/06/13 01:38:44;;;;;;;6.60;5.00;;;17.10;99.90;;;;;;5053288;28;20477;-80
2021/06/13 01:41:13;;;;;;;9.73;6.20;;;17.10;99.90;;;;;;5052758;28;20976;-80
2021/06/13 01:43:41;;;;;;;5.93;5.17;;;17.10;99.90;;;;;;5053314;28;20454;-80
2021/06/13 01:46:11;;;;;;;6.87;6.10;;;17.20;99.90;;;;;;5052955;28;20833;-80
2021/06/13 01:48:39;;;;;;;8.27;6.40;;;17.10;99.90;;;;;;5053590;28;20426;-79
2021/06/13 01:51:05;;;;;;;5.73;5.13;;;17.10;99.90;;;;;;5053171;28;20446;-86
2021/06/13 01:53:41;;;;;;;6.77;6.03;;;17.00;99.90;;;;;;5053659;28;20817;-80
2021/06/13 01:56:09;;;;;;;7.63;5.47;;;17.00;99.90;;;;;;5052908;28;20909;-80
2021/06/13 01:58:38;;;;;;;7.30;6.40;;;17.00;99.90;;;;;;5053066;28;20507;-85
2021/06/13 02:01:06;;;;;;;11.40;5.93;;;16.90;99.90;;;;;;5053148;28;20525;-85
2021/06/13 02:03:36;;;;;;;7.40;5.80;;;16.90;99.90;;;;;;5053166;28;20454;-86
2021/06/13 02:06:04;;;;;;;7.63;6.10;;;16.90;99.90;;;;;;5052894;28;20440;-79
2021/06/13 02:08:34;;;;;;;8.43;5.40;;;16.80;99.90;;;;;;5052910;28;20456;-79
2021/06/13 02:11:02;;;;;;;9.27;6.17;;;16.80;99.90;;;;;;5053045;28;20437;-79
2021/06/13 02:13:31;;;;;;;7.17;5.57;;;16.80;99.90;;;;;;5052924;28;20477;-79
2021/06/13 02:15:58;;;;;;;7.57;6.27;;;16.80;99.90;;;;;;5052680;28;20445;-79
2021/06/13 02:18:26;;;;;;;8.13;5.70;;;16.80;99.90;;;;;;5052869;28;20489;-79
2021/06/13 02:20:55;;;;;;;9.03;6.27;;;16.80;99.90;;;;;;5052902;28;20445;-79
2021/06/13 02:23:24;;;;;;;6.10;5.50;;;16.80;99.90;;;;;;5052820;28;20469;-79
2021/06/13 02:25:50;;;;;;;7.03;5.73;;;16.80;99.90;;;;;;5052854;28;20438;-86
2021/06/13 02:28:17;;;;;;;6.90;6.00;;;16.80;99.90;;;;;;5052919;28;20438;-85
2021/06/13 02:30:46;;;;;;;7.00;6.30;;;16.80;99.90;;;;;;5053144;28;20454;-85
2021/06/13 02:33:15;;;;;;;7.97;5.33;;;16.80;99.90;;;;;;5052832;28;20469;-85
2021/06/13 02:35:45;;;;;;;5.93;5.10;;;16.70;99.90;;;;;;5052524;28;20457;-85
2021/06/13 02:38:14;;;;;;;7.20;6.40;;;16.70;99.90;;;;;;5052809;28;20469;-85
2021/06/13 02:40:41;;;;;;;7.40;5.77;;;16.70;99.90;;;;;;5053089;28;20445;-85
2021/06/13 02:43:07;;;;;;;11.63;6.37;;;16.60;99.90;;;;;;5052982;28;20952;-84
2021/06/13 02:45:34;;;;;;;6.33;5.60;;;16.60;99.90;;;;;;5052532;28;20474;-85
2021/06/13 02:48:00;;;;;;;12.13;6.37;;;16.50;99.90;;;;;;5052618;28;20449;-85
2021/06/13 02:50:27;;;;;;;6.40;5.70;;;16.50;99.90;;;;;;5052672;28;20461;-85
2021/06/13 02:53:00;;;;;;;7.77;5.30;;;16.40;99.90;;;;;;5052631;28;20469;-85
2021/06/13 02:55:42;;;;;;;9.07;5.97;;;16.40;99.90;;;;;;5055973;28;20901;-85
2021/06/13 02:58:31;;;;;;;6.30;5.30;;;16.30;99.90;;;;;;5056244;28;20535;-85
2021/06/13 03:00:58;;;;;;;13.70;5.73;;;16.20;99.90;;;;;;5056296;28;20445;-85
2021/06/13 03:03:27;;;;;;;6.03;5.43;;;16.20;99.90;;;;;;5056329;28;20469;-85
2021/06/13 03:05:56;;;;;;;9.57;5.90;;;16.10;99.90;;;;;;5056107;28;20461;-85
2021/06/13 03:08:23;;;;;;;7.20;5.70;;;16.10;99.90;;;;;;5055800;28;20441;-85
2021/06/13 03:10:52;;;;;;;6.23;5.07;;;16.00;99.90;;;;;;5055698;28;20499;-85
2021/06/13 03:13:22;;;;;;;7.90;5.47;;;16.00;99.90;;;;;;5055931;28;20477;-79
2021/06/13 03:15:50;;;;;;;5.13;4.63;;;15.90;99.90;;;;;;5055606;28;20817;-79
2021/06/13 03:18:18;;;;;;;7.60;5.60;;;15.90;99.90;;;;;;5055720;28;20486;-79
2021/06/13 03:20:45;;;;;;;6.10;5.30;;;15.90;99.90;;;;;;5055866;28;20449;-79
2021/06/13 03:23:12;;;;;;;6.57;5.87;;;15.90;99.90;;;;;;5055463;28;20470;-79
2021/06/13 03:25:39;;;;;;;7.57;5.10;;;15.90;99.90;;;;;;5055676;28;20438;-79
2021/06/13 03:28:08;;;;;;;8.17;5.90;;;15.80;99.90;;;;;;5055605;28;20442;-81
2021/06/13 03:30:35;;;;;;;5.70;4.97;;;15.80;99.90;;;;;;5055633;28;20450;-81
2021/06/13 03:33:03;;;;;;;8.00;5.93;;;15.80;99.90;;;;;;5055496;28;20469;-81
2021/06/13 03:35:30;;;;;;;6.20;5.00;;;15.80;99.90;;;;;;5055535;28;20503;-80
2021/06/13 03:37:58;;;;;;;5.80;4.67;;;15.90;99.90;;;;;;5055080;28;20486;-79
2021/06/13 03:40:26;;;;;;;7.67;4.80;;;15.90;99.90;;;;;;5055411;28;20452;-80
2021/06/13 03:42:54;;;;;;;6.00;4.90;;;16.00;99.90;;;;;;5055067;28;20961;-80
2021/06/13 03:45:23;;;;;;;5.20;4.63;;;16.00;99.90;;;;;;5054894;28;21005;-80
2021/06/13 03:47:51;;;;;;;5.60;4.87;;;16.00;99.90;;;;;;5055319;28;20456;-80
2021/06/13 03:50:19;;;;;;;5.23;4.73;;;16.00;99.90;;;;;;5055151;28;20802;-80
2021/06/13 03:52:47;;;;;;;7.93;5.30;;;16.00;99.90;;;;;;5054716;28;20952;-80
2021/06/13 03:55:14;;;;;;;7.70;4.73;;;16.00;99.90;;;;;;5054874;28;20438;-80
2021/06/13 03:57:43;;;;;;;7.60;4.80;;;16.00;99.90;;;;;;5055013;28;20492;-80
2021/06/13 04:00:12;;;;;;;11.00;4.80;;;16.00;99.90;;;;;;5055056;28;20450;-80
2021/06/13 04:02:42;;;;;;;6.00;4.50;;;16.00;99.90;;;;;;5054927;28;20873;-80
2021/06/13 04:05:10;;;;;;;5.17;4.33;;;16.00;99.90;;;;;;5054928;28;20454;-79
2021/06/13 04:07:38;;;;;;;4.50;4.07;;;16.00;99.90;;;;;;5054927;28;20539;-79
2021/06/13 04:10:05;;;;;;;4.90;4.50;;;16.00;99.90;;;;;;5054829;28;20438;-79
2021/06/13 04:12:33;;;;;;;6.17;4.00;;;16.10;99.90;;;;;;5054968;28;20470;-79
2021/06/13 04:15:01;;;;;;;4.40;4.00;;;16.00;99.90;;;;;;5054753;28;20454;-79
2021/06/13 04:17:28;;;;;;;7.27;3.77;;;16.10;99.90;;;;;;5054351;28;20478;-79
2021/06/13 04:19:57;;;;;;;6.03;4.00;;;16.10;99.90;;;;;;5054697;28;20446;-81
2021/06/13 04:22:23;;;;;;;9.30;4.53;;;16.10;99.90;;;;;;5054538;28;20473;-82
2021/06/13 04:24:52;;;;;;;4.80;3.97;;;16.10;99.90;;;;;;5054291;28;20515;-82
2021/06/13 04:27:22;;;;;;;4.10;3.40;;;16.10;99.90;;;;;;5054215;28;20452;-81
2021/06/13 04:29:49;;;;;;;5.30;4.60;;;16.00;99.90;;;;;;5054472;28;20453;-81
2021/06/13 04:32:16;;;;;;;8.47;4.37;;;16.10;99.90;;;;;;5054590;28;20472;-81
2021/06/13 04:34:43;;;;;;;5.93;3.70;;;16.10;99.90;;;;;;5054724;28;20442;-81
2021/06/13 04:37:12;;;;;;;3.80;3.40;;;16.10;99.90;;;;;;5054301;28;20537;-81
2021/06/13 04:39:39;;;;;;;3.73;3.40;;;16.10;99.90;;;;;;5054332;28;20434;-81
2021/06/13 04:42:07;;;;;;;6.77;4.07;;;16.10;99.90;;;;;;5054182;28;20493;-82
2021/06/13 04:44:35;;;;;;;5.17;4.67;;;16.10;99.90;;;;;;5054335;28;20446;-85
2021/06/13 04:47:02;;;;;;;4.30;3.90;;;16.20;99.90;;;;;;5053853;28;20478;-85
2021/06/13 04:49:28;;;;;;;6.57;4.30;;;16.20;99.90;;;;;;5054192;28;20491;-85
2021/06/13 04:51:58;;;;;;;4.17;3.70;;;16.30;99.90;;;;;;5054130;28;20469;-85
2021/06/13 04:54:47;;;;;;;4.70;4.30;;;16.40;99.90;;;;;;5054100;28;20461;-85
2021/06/13 04:57:37;;;;;;;6.40;4.17;;;16.40;99.90;;;;;;5053972;28;20430;-85
2021/06/13 05:00:05;;;;;;;5.80;4.70;;;16.40;99.90;;;;;;5053753;28;20438;-85
2021/06/13 05:02:33;;;;;;;4.20;3.80;;;16.50;99.90;;;;;;5053957;28;20532;-85
2021/06/13 05:05:00;;;;;;;5.80;4.67;;;16.50;99.90;;;;;;5053690;28;20450;-80
2021/06/13 05:07:27;;;;;;;6.23;4.70;;;16.60;99.90;;;;;;5053519;28;20573;-79
2021/06/13 05:09:55;;;;;;;8.40;4.20;;;16.70;99.90;;;;;;5053670;28;20441;-80
2021/06/13 05:12:22;;;;;;;5.53;4.30;;;16.60;99.90;;;;;;5053669;28;20473;-80
2021/06/13 05:14:49;;;;;;;7.37;4.47;;;16.70;99.90;;;;;;5053708;28;20445;-80
2021/06/13 05:17:15;;;;;;;7.80;3.80;;;16.70;99.90;;;;;;5053213;28;20460;-79
2021/06/13 05:19:42;;;;;;;6.87;3.60;;;16.80;99.90;;;;;;5053346;28;21004;-79
2021/06/13 05:22:09;;;;;;;3.97;3.67;;;16.80;99.90;;;;;;5053508;28;20469;-80
2021/06/13 05:24:36;;;;;;;3.87;3.57;;;16.90;99.90;;;;;;5053457;28;20438;-85
2021/06/13 05:27:05;;;;;;;4.87;3.87;;;16.90;99.90;;;;;;5053202;28;20819;-86
2021/06/13 05:29:32;;;;;;;7.23;4.17;;;16.90;99.90;;;;;;5053579;28;20457;-86
2021/06/13 05:31:59;;;;;;;4.77;3.60;;;17.00;99.90;;;;;;5053494;28;20483;-85
2021/06/13 05:34:26;;;;;;;5.30;4.00;;;17.10;99.90;;;;;;5053462;28;20808;-86
2021/06/13 05:36:52;;;;;;;5.70;4.33;;;17.20;99.90;;;;;;5053200;28;20445;-86
2021/06/13 05:39:19;;;;;;;4.93;3.87;;;17.20;99.90;;;;;;5053624;28;20481;-86
2021/06/13 05:41:46;;;;;;;4.37;3.93;;;17.40;99.90;;;;;;5053340;28;20489;-86
2021/06/13 05:44:14;;;;;;;6.47;4.67;;;17.40;99.90;;;;;;5053511;28;20450;-86
2021/06/13 05:46:40;;;;;;;4.27;3.90;;;17.50;99.90;;;;;;5052525;28;20486;-82
2021/06/13 05:49:07;;;;;;;4.40;3.90;;;17.50;99.90;;;;;;5053225;28;20806;-81
2021/06/13 05:51:34;;;;;;;4.70;4.27;;;17.60;99.90;;;;;;5053102;28;20474;-82
2021/06/13 05:54:01;;;;;;;4.70;4.27;;;17.70;99.90;;;;;;5053186;28;20469;-82
2021/06/13 05:56:27;;;;;;;5.33;4.47;;;17.80;99.90;;;;;;5053151;28;20466;-82
2021/06/13 05:58:54;;;;;;;10.20;4.37;;;17.90;99.90;;;;;;5052921;28;20477;-86
2021/06/13 06:01:22;;;;;;;4.77;3.47;;;18.00;99.90;;;;;;5053192;28;20449;-86
2021/06/13 06:03:49;;;;;;;5.67;3.93;;;18.20;99.90;;;;;;5053057;28;20454;-86
2021/06/13 06:06:16;;;;;;;5.60;3.93;;;18.40;99.90;;;;;;5053123;28;20457;-80
2021/06/13 06:08:42;;;;;;;5.57;3.60;;;18.70;99.90;;;;;;5052765;28;20952;-80
2021/06/13 06:11:10;;;;;;;4.30;3.90;;;18.90;99.90;;;;;;5052952;28;20446;-80
2021/06/13 06:13:36;;;;;;;3.87;3.43;;;19.30;99.90;;;;;;5053035;28;20453;-80
2021/06/13 06:16:03;;;;;;;3.97;3.57;;;19.80;99.90;;;;;;5052783;28;20452;-81
2021/06/13 06:18:31;;;;;;;4.13;3.40;;;20.20;99.90;;;;;;5053555;28;20492;-81
2021/06/13 06:20:58;;;;;;;4.57;3.20;;;20.70;99.90;;;;;;5053253;28;20452;-81
2021/06/13 06:23:25;;;;;;;3.83;3.53;;;21.10;99.90;;;;;;5052552;28;20226;-81
2021/06/13 06:25:51;;;;;;;4.75;3.55;;;21.40;99.90;;;;;;5052639;28;20238;-81
2021/06/13 06:28:18;;;;;;;2.97;2.78;;;21.90;99.90;;;;;;5053190;28;20213;-83
2021/06/13 06:30:45;;;;;;;3.63;3.30;;;22.30;99.90;;;;;;5056547;28;20218;-83
2021/06/13 06:33:12;;;;;;;3.90;3.58;;;22.50;99.90;;;;;;5056451;28;20218;-83
2021/06/13 06:35:40;;;;;;;3.80;3.30;;;23.00;99.60;;;;;;5056368;28;20306;-83
2021/06/13 06:38:07;;;;;;;3.72;3.40;;;23.30;95.90;;;;;;5056562;28;20223;-81
2021/06/13 06:40:33;;;;;;;4.82;3.67;;;23.70;95.30;;;;;;5056328;28;20205;-81
2021/06/13 06:43:00;;;;;;;3.50;3.20;;;24.00;93.90;;;;;;5056192;28;20557;-81
2021/06/13 06:45:27;;;;;;;5.72;3.80;;;24.30;91.70;;;;;;5056291;28;20233;-81
2021/06/13 06:47:53;;;;;;;4.10;3.65;;;24.20;91.60;;;;;;5056474;28;20185;-81
2021/06/13 06:50:21;;;;;;;3.95;3.65;;;24.20;91.20;;;;;;5056175;28;20204;-81
2021/06/13 06:52:49;;;;;;;4.00;3.25;;;24.00;90.60;;;;;;5056073;28;20211;-81
2021/06/13 06:55:17;;;;;;;3.35;3.05;;;23.80;90.60;;;;;;5056441;28;20213;-81
2021/06/13 06:57:45;;;;;;;3.28;2.97;;;23.50;90.40;;;;;;5056302;28;20207;-81
2021/06/13 07:00:13;;;;;;;4.13;3.20;;;23.60;90.30;;;;;;5056228;28;20261;-86
2021/06/13 07:02:40;;;;;;;3.38;3.10;;;23.60;89.70;;;;;;5056122;28;20230;-86
2021/06/13 07:05:08;;;;;;;3.72;3.50;;;23.40;90.40;;;;;;5056160;28;20214;-86
2021/06/13 07:07:35;;;;;;;3.08;2.88;;;23.50;90.10;;;;;;5056434;28;20661;-85
2021/06/13 07:10:04;;;;;;;5.13;3.47;;;23.30;90.50;;;;;;5055975;28;20615;-85
2021/06/13 07:12:31;;;;;;;4.03;3.47;;;23.40;88.50;;;;;;5056069;28;20309;-82
2021/06/13 07:14:58;;;;;;;5.75;3.90;;;23.50;88.60;;;;;;5055935;28;20206;-81
2021/06/13 07:17:25;;;;;;;3.13;2.80;;;23.40;88.30;;;;;;5055901;28;20206;-81
2021/06/13 07:19:52;;;;;;;4.25;3.45;;;23.30;89.00;;;;;;5055883;28;20225;-80
2021/06/13 07:22:19;;;;;;;3.58;3.28;;;23.30;88.00;;;;;;5056005;28;20226;-80
2021/06/13 07:24:46;;;;;;;3.17;2.85;;;23.50;88.80;;;;;;5055536;28;20183;-80
2021/06/13 07:27:14;;;;;;;4.03;3.63;;;23.70;89.00;;;;;;5055766;28;20183;-80
2021/06/13 07:29:41;;;;;;;2.70;2.60;;;24.40;83.10;;;;;;5055428;28;20638;-86
2021/06/13 07:32:08;;;;;;;3.35;3.15;;;24.70;82.50;;;;;;5055808;28;20222;-85
2021/06/13 07:34:35;;;;;;;2.60;2.40;;;25.10;82.30;;;;;;5055688;28;20187;-86
2021/06/13 07:37:03;;;;;;;3.00;2.80;;;25.80;79.30;;;;;;5055590;28;20198;-85
2021/06/13 07:39:31;;;;;;;3.50;3.30;;;26.70;72.90;;;;;;5055147;28;20218;-85
2021/06/13 07:41:58;;;;;;;2.40;2.30;;;26.80;72.10;;;;;;5055466;28;20281;-80
2021/06/13 07:44:27;;;;;;;5.45;3.30;;;27.10;71.70;;;;;;5056076;28;20207;-80
2021/06/13 07:46:54;;;;;;;3.88;3.30;;;27.60;67.30;;;;;;5054909;28;20238;-80
2021/06/13 07:49:21;;;;;;;4.60;3.72;;;27.50;69.50;;;;;;5055585;28;20180;-80
2021/06/13 07:51:48;;;;;;;6.05;3.65;;;27.60;67.90;;;;;;5055194;28;20225;-80
2021/06/13 07:54:15;;;;;;;2.70;2.50;;;27.70;67.70;;;;;;5054940;28;20195;-80
2021/06/13 07:56:42;;;;;;;3.35;3.10;;;27.80;66.20;;;;;;5054825;28;20674;-81
2021/06/13 07:59:10;;;;;;;2.88;2.67;;;27.90;66.50;;;;;;5055057;28;20224;-81
2021/06/13 08:01:38;;;;;;;5.50;2.75;;;28.40;64.80;;;;;;5054758;28;20227;-81
2021/06/13 08:04:05;;;;;;;2.60;2.25;;;28.70;63.00;;;;;;5055081;28;20581;-81
2021/06/13 08:06:32;;;;;;;3.20;3.00;;;29.60;62.30;;;;;;5054980;28;20253;-80
2021/06/13 08:08:59;;;;;;;3.20;2.80;;;30.70;57.90;;;;;;5054681;28;20204;-86
2021/06/13 08:11:26;;;;;;;3.50;3.20;;;31.90;54.10;;;;;;5054838;28;20198;-86
2021/06/13 08:13:53;;;;;;;3.53;2.75;;;33.00;52.40;;;;;;5054850;28;20211;-82
2021/06/13 08:16:20;;;;;;;9.88;2.55;;;33.90;50.40;;;;;;5054491;28;20214;-81
2021/06/13 08:18:48;;;;;;;2.45;2.03;;;34.70;47.60;;;;;;5054943;28;20235;-81
2021/06/13 08:21:15;;;;;;;3.05;2.85;;;35.20;47.40;;;;;;5054637;28;20214;-86
2021/06/13 08:23:41;;;;;;;2.40;2.20;;;35.90;44.50;;;;;;5054907;28;20211;-86
2021/06/13 08:26:08;;;;;;;2.92;2.72;;;35.90;43.00;;;;;;5054377;28;20199;-86
2021/06/13 08:28:35;;;;;;;2.90;2.58;;;35.50;42.90;;;;;;5054567;28;20215;-86
2021/06/13 08:31:02;;;;;;;3.47;2.42;;;35.60;42.70;;;;;;5054207;28;20572;-86
2021/06/13 08:33:29;;;;;;;4.10;3.25;;;35.30;43.40;;;;;;5054626;28;20225;-86
2021/06/13 08:35:57;;;;;;;3.25;2.95;;;34.80;43.30;;;;;;5054424;28;20202;-81
2021/06/13 08:38:24;;;;;;;2.58;2.38;;;34.80;44.00;;;;;;5054377;28;20195;-81
2021/06/13 08:40:52;;;;;;;3.60;2.45;;;34.70;43.00;;;;;;5054473;28;20213;-81
2021/06/13 08:43:20;;;;;;;3.58;3.28;;;34.60;43.80;;;;;;5055864;28;20218;-81
2021/06/13 08:45:47;;;;;;;2.33;2.10;;;34.70;43.20;;;;;;5056815;28;20223;-82
2021/06/13 08:48:15;;;;;;;2.25;2.05;;;34.40;43.10;;;;;;5055033;28;20682;-81
2021/06/13 08:50:42;;;;;;;3.45;3.17;;;33.70;43.70;;;;;;5053798;28;20216;-86
2021/06/13 08:53:12;;;;;;;2.72;2.53;;;33.00;45.80;;;;;;5053641;28;20230;-86
2021/06/13 08:55:39;;;;;;;2.63;2.53;;;31.80;46.20;;;;;;5054151;28;20209;-79
2021/06/13 08:58:05;;;;;;;3.58;3.35;;;31.10;48.50;;;;;;5053722;28;20558;-78
2021/06/13 09:00:33;;;;;;;2.97;2.78;;;30.10;47.80;;;;;;5053870;28;20237;-78
2021/06/13 09:03:03;;;;;;;4.70;3.20;;;29.60;48.60;;;;;;5053771;28;20225;-78
2021/06/13 09:05:29;;;;;;;3.10;2.33;;;28.60;51.20;;;;;;5053315;28;20215;-77
2021/06/13 09:07:58;;;;;;;4.18;3.80;;;28.00;52.10;;;;;;5053538;28;20560;-83
2021/06/13 09:10:28;;;;;;;4.68;3.17;;;27.70;51.10;;;;;;5053399;28;20574;-86
2021/06/13 09:13:09;;;;;;;3.50;3.20;;;27.40;53.80;;;;;;5053670;28;20219;-86
2021/06/13 09:15:37;;;;;;;3.05;2.70;;;27.10;54.00;;;;;;5053738;28;20183;-86
2021/06/13 09:18:05;;;;;;;4.60;2.80;;;26.80;53.40;;;;;;5053729;28;20191;-85
2021/06/13 09:20:32;;;;;;;3.10;2.90;;;26.60;55.30;;;;;;5053591;28;20223;-85
2021/06/13 09:23:09;;;;;;;3.92;3.55;;;26.40;56.50;;;;;;5053562;28;20249;-85
2021/06/13 09:25:40;;;;;;;3.00;2.83;;;25.70;55.70;;;;;;5053633;28;20191;-83
2021/06/13 09:28:10;;;;;;;2.70;2.50;;;25.70;57.10;;;;;;5053520;28;20602;-82
2021/06/13 09:30:38;;;;;;;2.67;2.58;;;25.70;59.30;;;;;;5053496;28;20293;-83
2021/06/13 09:33:09;;;;;;;2.45;2.35;;;25.80;58.30;;;;;;5053392;28;20219;-82
2021/06/13 09:35:37;;;;;;;2.80;2.60;;;25.80;55.40;;;;;;5053860;28;20237;-82
2021/06/13 09:38:10;;;;;;;2.85;2.20;;;25.80;55.50;;;;;;5053387;28;20210;-83
2021/06/13 09:40:39;;;;;;;3.13;2.55;;;25.70;55.40;;;;;;5053463;28;20213;-83
2021/06/13 09:43:14;;;;;;;3.28;2.60;;;25.70;56.60;;;;;;5053522;28;20238;-82
2021/06/13 09:45:47;;;;;;;2.70;2.50;;;25.70;57.60;;;;;;5053100;28;20245;-82
2021/06/13 09:48:14;;;;;;;2.78;2.53;;;25.90;57.30;;;;;;5053216;28;20206;-82
2021/06/13 09:50:42;;;;;;;2.17;2.08;;;25.80;57.50;;;;;;5053149;28;20575;-82
2021/06/13 09:53:43;;;;;;;2.13;1.95;;;25.80;56.90;;;;;;5052908;28;20650;-82
2021/06/13 09:56:33;;;;;;;4.00;3.00;;;26.00;55.10;;;;;;5048497;28;20236;-82
2021/06/13 09:59:03;;;;;;;4.32;2.55;;;25.60;56.60;;;;;;5047625;28;20205;-83
2021/06/13 10:01:32;;;;;;;3.55;3.35;;;25.50;58.30;;;;;;5054771;28;20657;-83
2021/06/13 10:04:01;;;;;;;3.17;2.80;;;25.60;57.10;;;;;;5056690;28;20183;-84
2021/06/13 10:06:30;;;;;;;2.83;2.38;;;25.50;58.30;;;;;;5057024;28;20202;-83
2021/06/13 10:08:58;;;;;;;3.30;2.92;;;25.40;59.30;;;;;;5057298;28;20556;-83
2021/06/13 10:22:01;;;;;;;3.25;2.53;;;25.80;57.90;;;;;;5015941;28;20236;-77
2021/06/13 10:24:30;;;;;;;2.67;2.47;;;25.80;56.40;;;;;;5017578;28;20213;-77
2021/06/13 10:27:00;;;;;;;2.70;2.60;;;25.80;57.40;;;;;;5017368;28;20207;-77
2021/06/13 10:29:29;;;;;;;2.28;2.17;;;25.90;57.30;;;;;;5017566;28;20200;-79
2021/06/13 10:31:57;;;;;;;3.13;2.92;;;26.00;57.20;;;;;;5016789;28;20737;-78
2021/06/13 10:34:26;;;;;;;2.17;2.00;;;26.10;56.50;;;;;;5017043;28;20199;-79
2021/06/13 10:36:54;;;;;;;4.13;2.30;;;26.20;56.20;;;;;;5016833;28;20196;-78
2021/06/13 10:39:25;;;;;;;2.40;2.22;;;26.20;57.00;;;;;;5016935;28;20625;-78
2021/06/13 10:41:53;;;;;;;3.72;2.17;;;26.20;56.10;;;;;;5016602;28;20239;-78
2021/06/13 10:44:23;;;;;;;2.25;2.15;;;26.10;56.70;;;;;;5016594;28;20283;-78
2021/06/13 10:46:52;;;;;;;2.47;2.28;;;26.00;56.80;;;;;;5016744;28;20208;-78
2021/06/13 10:49:31;;;;;;;2.05;1.95;;;25.90;55.70;;;;;;5016937;28;20195;-78
2021/06/13 10:52:09;;;;;;;3.53;2.55;;;25.80;53.80;;;;;;5016672;28;20231;-78
2021/06/13 10:54:39;;;;;;;2.53;2.33;;;25.70;56.30;;;;;;5016705;28;20203;-79
2021/06/13 10:57:36;;;;;;;2.10;2.00;;;25.70;56.40;;;;;;5016425;28;20181;-79
2021/06/13 11:00:32;;;;;;;2.88;2.65;;;25.90;57.10;;;;;;5007816;28;20567;-79
2021/06/13 11:03:00;;;;;;;2.67;2.47;;;25.80;56.30;;;;;;5016195;28;20216;-79
2021/06/13 11:05:39;;;;;;;2.35;1.90;;;26.00;56.60;;;;;;5016625;28;20200;-79
2021/06/13 11:08:06;;;;;;;2.00;1.80;;;26.20;53.90;;;;;;5016493;28;20199;-78
2021/06/13 11:10:35;;;;;;;1.83;1.73;;;26.10;56.40;;;;;;5016609;28;20192;-79
2021/06/13 11:13:09;;;;;;;1.60;1.50;;;26.00;54.70;;;;;;5016536;28;20227;-79
2021/06/13 11:15:48;;;;;;;1.98;1.80;;;26.00;52.30;;;;;;5016005;28;20203;-78
2021/06/13 11:18:23;;;;;;;1.88;1.77;;;25.90;54.40;;;;;;5016214;28;20678;-79
2021/06/13 11:20:53;;;;;;;1.92;1.83;;;25.80;55.20;;;;;;5015843;28;20691;-79
2021/06/13 11:23:46;;;;;;;1.45;1.35;;;25.80;54.60;;;;;;5016170;28;20239;-79
2021/06/13 11:26:42;;;;;;;2.10;2.00;;;25.70;55.10;;;;;;5016314;28;20283;-78
2021/06/13 11:29:11;;;;;;;1.70;1.60;;;25.60;55.50;;;;;;5015764;28;20188;-78
2021/06/13 11:31:51;;;;;;;1.90;1.80;;;25.60;56.30;;;;;;5015597;28;20226;-79
2021/06/13 11:34:18;;;;;;;1.90;1.80;;;25.60;55.10;;;;;;5015972;28;20195;-79
2021/06/13 11:36:45;;;;;;;1.73;1.63;;;25.40;54.10;;;;;;5015829;28;20208;-78
2021/06/13 11:39:32;;;;;;;1.85;1.55;;;25.30;54.10;;;;;;5015713;28;20295;-78
2021/06/13 11:42:19;;;;;;;2.47;2.17;;;25.30;55.70;;;;;;5015801;28;20217;-79
2021/06/13 11:44:47;;;;;;;3.38;1.90;;;25.20;54.20;;;;;;5016351;28;20219;-79
2021/06/13 11:47:36;;;;;;;1.60;1.50;;;25.00;54.10;;;;;;5015364;28;20664;-78
2021/06/13 11:50:34;;;;;;;1.70;1.60;;;24.90;54.40;;;;;;5016117;28;20192;-78
2021/06/13 11:53:06;;;;;;;1.80;1.70;;;24.80;55.20;;;;;;5015266;28;20594;-79
2021/06/13 11:56:00;;;;;;;2.45;1.75;;;24.70;55.50;;;;;;5015816;28;20556;-78
2021/06/13 11:58:29;;;;;;;1.83;1.60;;;24.70;54.10;;;;;;5015558;28;20195;-78
2021/06/13 12:00:58;;;;;;;1.77;1.67;;;24.60;56.70;;;;;;5015097;28;20582;-78
2021/06/13 12:03:25;;;;;;;2.10;1.80;;;24.70;55.80;;;;;;5015402;28;20220;-78
2021/06/13 12:06:01;;;;;;;5.18;2.00;;;24.60;54.50;;;;;;5015339;28;20218;-79
2021/06/13 12:08:29;;;;;;;1.90;1.80;;;24.50;56.50;;;;;;5015647;28;20211;-78
2021/06/13 12:10:56;;;;;;;1.50;1.40;;;24.50;56.80;;;;;;5015316;28;20200;-79
2021/06/13 12:13:29;;;;;;;1.55;1.55;;;24.40;57.40;;;;;;5015130;28;20235;-78
2021/06/13 12:15:56;;;;;;;2.03;1.67;;;24.40;55.20;;;;;;5015234;28;20250;-79
2021/06/13 12:18:23;;;;;;;1.87;1.30;;;24.30;54.60;;;;;;5015132;28;20208;-78
2021/06/13 12:20:59;;;;;;;2.50;1.43;;;24.30;54.80;;;;;;5014621;28;20232;-79
2021/06/13 12:23:39;;;;;;;2.35;1.90;;;24.40;52.60;;;;;;5015067;28;20230;-79
2021/06/13 12:29:01;;;;;;;1.90;1.60;;;24.30;55.30;;;;;;5015351;28;20187;-79
2021/06/13 12:31:29;;;;;;;1.50;1.40;;;24.30;55.80;;;;;;5014930;28;20188;-78
2021/06/13 12:33:56;;;;;;;3.50;2.00;;;24.30;54.70;;;;;;5014866;28;20200;-78
2021/06/13 12:36:23;;;;;;;1.70;1.60;;;24.20;54.20;;;;;;5014488;28;20675;-78
2021/06/13 12:38:51;;;;;;;1.43;1.23;;;24.20;55.00;;;;;;5014736;28;20212;-78
2021/06/13 12:41:21;;;;;;;2.60;1.73;;;24.00;54.70;;;;;;5014556;28;20220;-79
2021/06/13 12:43:49;;;;;;;1.13;1.13;;;24.00;53.90;;;;;;5014440;28;20640;-79
2021/06/13 12:46:17;;;;;;;2.43;1.70;;;23.80;54.60;;;;;;5014572;28;20598;-79
2021/06/13 12:48:45;;;;;;;1.60;1.50;;;23.90;52.30;;;;;;5014394;28;20836;-79
2021/06/13 12:51:13;;;;;;;1.97;1.40;;;23.80;51.30;;;;;;5014460;28;20200;-79
2021/06/13 12:53:43;;;;;;;1.87;1.40;;;23.70;52.50;;;;;;5014259;28;20434;-79
2021/06/13 12:56:12;;;;;;;1.90;1.80;;;23.60;52.40;;;;;;5014550;28;20431;-78
2021/06/13 12:58:41;;;;;;;1.70;1.33;;;23.70;51.50;;;;;;5014400;28;20211;-79
2021/06/13 13:01:09;;;;;;;2.30;1.10;;;23.60;49.90;;;;;;5014490;28;20482;-79
2021/06/13 13:03:43;;;;;;;1.10;1.10;;;23.60;50.90;;;;;;5014559;28;20466;-79
2021/06/13 13:06:12;;;;;;;1.43;1.30;;;23.50;53.10;;;;;;5014556;28;20435;-79
2021/06/13 13:08:40;;;;;;;1.40;1.40;;;23.50;53.00;;;;;;5014419;28;20458;-78
2021/06/13 13:11:07;;;;;;;2.07;1.20;;;23.50;53.40;;;;;;5014313;28;20446;-78